createdAt,value
2018-09-19T00:02:09.359Z,14.60
2018-09-19T00:04:37.539Z,13.50
2018-09-19T00:07:05.713Z,13.63
2018-09-19T00:09:33.899Z,15.23
2018-09-19T00:12:02.119Z,15.13
2018-09-19T00:14:30.327Z,14.00
2018-09-19T00:16:58.498Z,14.90
2018-09-19T00:19:26.700Z,14.20
2018-09-19T00:21:54.947Z,14.43
2018-09-19T00:24:23.043Z,14.40
2018-09-19T00:26:51.250Z,14.60
2018-09-19T00:29:19.431Z,14.20
2018-09-19T00:31:47.621Z,14.90
2018-09-19T00:34:15.813Z,14.87
2018-09-19T00:36:43.982Z,14.67
2018-09-19T00:39:12.165Z,15.10
2018-09-19T00:41:40.344Z,14.90
2018-09-19T00:44:08.520Z,15.23
2018-09-19T00:46:36.699Z,15.73
2018-09-19T00:49:04.895Z,14.70
2018-09-19T00:51:33.085Z,15.60
2018-09-19T00:54:01.274Z,14.83
2018-09-19T00:56:29.480Z,15.33
2018-09-19T00:58:57.655Z,14.03
2018-09-19T01:01:25.855Z,14.47
2018-09-19T01:03:54.035Z,15.73
2018-09-19T01:06:22.218Z,14.93
2018-09-19T01:08:50.394Z,16.03
2018-09-19T01:11:18.637Z,14.30
2018-09-19T01:13:46.767Z,14.33
2018-09-19T01:16:14.930Z,15.27
2018-09-19T01:18:43.126Z,15.10
2018-09-19T01:21:11.314Z,14.87
2018-09-19T01:23:39.529Z,15.57
2018-09-19T01:26:07.725Z,15.83
2018-09-19T01:28:35.896Z,15.60
2018-09-19T01:31:04.074Z,16.00
2018-09-19T01:33:32.252Z,15.40
2018-09-19T01:36:00.473Z,16.03
2018-09-19T01:38:28.647Z,14.80
2018-09-19T01:40:57.035Z,14.80
2018-09-19T01:43:25.222Z,15.57
2018-09-19T01:45:53.394Z,15.97
2018-09-19T01:48:21.589Z,16.00
2018-09-19T01:50:49.768Z,16.73
2018-09-19T01:53:17.963Z,17.00
2018-09-19T01:55:46.133Z,16.53
2018-09-19T01:58:14.329Z,15.97
2018-09-19T02:00:42.521Z,18.20
2018-09-19T02:03:10.695Z,20.90
2018-09-19T02:05:38.883Z,17.50
2018-09-19T02:08:07.112Z,16.77
2018-09-19T02:10:35.263Z,16.27
2018-09-19T02:13:03.553Z,17.20
2018-09-19T02:15:31.837Z,16.70
2018-09-19T02:18:00.024Z,16.23
2018-09-19T02:20:28.254Z,16.37
2018-09-19T02:22:56.458Z,16.40
2018-09-19T02:25:24.665Z,15.03
2018-09-19T02:27:52.948Z,16.43
2018-09-19T02:30:21.152Z,16.30
2018-09-19T02:32:49.351Z,18.33
2018-09-19T02:35:17.572Z,16.57
2018-09-19T02:37:45.781Z,17.00
2018-09-19T02:40:13.979Z,16.83
2018-09-19T02:42:42.259Z,16.37
2018-09-19T02:45:10.448Z,16.77
2018-09-19T02:47:38.697Z,17.10
2018-09-19T02:50:06.900Z,15.23
2018-09-19T02:52:35.103Z,17.30
2018-09-19T02:55:03.306Z,17.30
2018-09-19T02:57:31.502Z,16.63
2018-09-19T02:59:59.680Z,15.00
2018-09-19T03:02:27.865Z,15.97
2018-09-19T03:04:56.062Z,15.37
2018-09-19T03:07:24.311Z,15.47
2018-09-19T03:09:52.506Z,15.63
2018-09-19T03:12:20.797Z,15.20
2018-09-19T03:14:49.015Z,15.87
2018-09-19T03:17:17.296Z,15.00
2018-09-19T03:19:45.418Z,15.83
2018-09-19T03:22:13.603Z,14.80
2018-09-19T03:24:41.805Z,15.43
2018-09-19T03:27:10.009Z,15.97
2018-09-19T03:29:38.202Z,15.70
2018-09-19T03:32:06.417Z,16.23
2018-09-19T03:34:34.610Z,15.20
2018-09-19T03:37:02.790Z,15.80
2018-09-19T03:39:31.028Z,15.73
2018-09-19T03:41:59.229Z,15.10
2018-09-19T03:44:27.402Z,14.97
2018-09-19T03:46:57.805Z,14.93
2018-09-19T03:49:25.996Z,15.40
2018-09-19T03:51:54.456Z,14.03
2018-09-19T03:54:22.653Z,14.80
2018-09-19T03:56:51.009Z,16.00
2018-09-19T03:59:19.309Z,14.37
2018-09-19T04:01:47.475Z,14.87
2018-09-19T04:04:15.689Z,14.83
2018-09-19T04:06:43.888Z,13.87
2018-09-19T04:09:13.305Z,19.73
2018-09-19T04:11:41.697Z,14.70
2018-09-19T04:14:10.995Z,15.30
2018-09-19T04:16:39.370Z,14.23
2018-09-19T04:19:07.639Z,15.03
2018-09-19T04:21:40.232Z,14.53
2018-09-19T04:24:08.651Z,13.70
2018-09-19T04:26:36.860Z,13.40
2018-09-19T04:29:05.053Z,12.80
2018-09-19T04:31:33.284Z,12.80
2018-09-19T04:34:01.466Z,13.20
2018-09-19T04:36:29.656Z,17.47
2018-09-19T04:38:57.854Z,14.07
2018-09-19T04:41:26.054Z,13.93
2018-09-19T04:43:54.316Z,14.13
2018-09-19T04:46:22.486Z,12.73
2018-09-19T04:48:50.734Z,13.10
2018-09-19T04:51:19.194Z,16.00
2018-09-19T04:53:47.485Z,13.70
2018-09-19T04:56:15.663Z,13.77
2018-09-19T04:58:44.141Z,14.80
2018-09-19T05:01:12.321Z,14.50
2018-09-19T05:03:40.522Z,13.87
2018-09-19T05:06:08.723Z,13.80
2018-09-19T05:08:36.915Z,13.90
2018-09-19T05:11:05.138Z,15.37
2018-09-19T05:13:33.332Z,14.83
2018-09-19T05:16:01.524Z,15.90
2018-09-19T05:18:29.739Z,14.47
2018-09-19T05:20:57.922Z,13.53
2018-09-19T05:23:26.128Z,14.13
2018-09-19T05:25:54.294Z,15.77
2018-09-19T05:28:22.538Z,13.70
2018-09-19T05:30:50.855Z,19.50
2018-09-19T05:33:19.313Z,15.37
2018-09-19T05:35:47.576Z,17.83
2018-09-19T05:38:15.766Z,15.80
2018-09-19T05:40:43.953Z,15.10
2018-09-19T05:43:12.163Z,15.43
2018-09-19T05:45:40.358Z,15.60
2018-09-19T05:48:08.627Z,14.83
2018-09-19T05:50:37.123Z,15.77
2018-09-19T05:53:05.311Z,15.80
2018-09-19T05:55:33.508Z,14.70
2018-09-19T05:58:01.731Z,14.80
2018-09-19T06:00:29.979Z,14.50
2018-09-19T06:02:58.154Z,16.20
2018-09-19T06:05:26.717Z,15.90
2018-09-19T06:07:54.900Z,15.57
2018-09-19T06:10:23.097Z,15.60
2018-09-19T06:12:51.306Z,15.50
2018-09-19T06:15:19.517Z,17.10
2018-09-19T06:17:47.706Z,14.73
2018-09-19T06:20:15.899Z,15.53
2018-09-19T06:22:44.085Z,19.10
2018-09-19T06:25:12.301Z,17.13
2018-09-19T06:27:40.490Z,16.07
2018-09-19T06:30:08.707Z,16.20
2018-09-19T06:32:36.896Z,16.10
2018-09-19T06:35:05.539Z,18.40
2018-09-19T06:37:33.723Z,15.60
2018-09-19T06:40:01.977Z,15.87
2018-09-19T06:42:30.120Z,17.33
2018-09-19T06:44:58.325Z,23.43
2018-09-19T06:47:26.539Z,15.93
2018-09-19T06:49:54.864Z,15.23
2018-09-19T06:52:23.254Z,17.53
2018-09-19T06:54:51.405Z,16.10
2018-09-19T06:57:19.588Z,18.20
2018-09-19T06:59:47.815Z,18.23
2018-09-19T07:02:15.937Z,16.43
2018-09-19T07:04:44.132Z,17.63
2018-09-19T07:07:12.304Z,17.63
2018-09-19T07:09:40.618Z,21.83
2018-09-19T07:12:08.806Z,18.77
2018-09-19T07:14:36.991Z,16.50
2018-09-19T07:17:05.227Z,17.60
2018-09-19T07:19:33.414Z,18.37
2018-09-19T07:22:01.649Z,14.60
2018-09-19T07:24:29.810Z,15.70
2018-09-19T07:26:58.009Z,15.20
2018-09-19T07:29:26.176Z,18.27
2018-09-19T07:31:54.367Z,21.63
2018-09-19T07:34:22.557Z,16.87
2018-09-19T07:36:50.743Z,17.50
2018-09-19T07:39:18.982Z,18.93
2018-09-19T07:41:47.158Z,18.07
2018-09-19T07:44:15.351Z,17.23
2018-09-19T07:46:43.566Z,16.10
2018-09-19T07:49:11.720Z,16.13
2018-09-19T07:51:39.892Z,16.00
2018-09-19T07:54:08.080Z,15.80
2018-09-19T07:56:36.253Z,15.07
2018-09-19T07:59:04.433Z,15.50
2018-09-19T08:01:32.628Z,19.43
2018-09-19T08:04:00.811Z,15.53
2018-09-19T08:06:28.991Z,15.47
2018-09-19T08:08:57.213Z,14.77
2018-09-19T08:11:25.424Z,16.63
2018-09-19T08:13:53.595Z,15.33
2018-09-19T08:16:21.775Z,15.73
2018-09-19T08:18:49.987Z,14.60
2018-09-19T08:21:18.147Z,14.60
2018-09-19T08:23:46.316Z,14.63
2018-09-19T08:26:14.492Z,15.60
2018-09-19T08:28:42.675Z,17.27
2018-09-19T08:31:10.907Z,13.57
2018-09-19T08:33:39.097Z,13.87
2018-09-19T08:36:07.284Z,15.00
2018-09-19T08:38:35.555Z,13.10
2018-09-19T08:41:03.764Z,13.03
2018-09-19T08:43:31.956Z,13.83
2018-09-19T08:46:00.147Z,14.67
2018-09-19T08:48:28.326Z,13.80
2018-09-19T08:50:56.517Z,16.10
2018-09-19T08:53:24.717Z,12.43
2018-09-19T08:55:52.923Z,11.40
2018-09-19T08:58:21.083Z,14.53
2018-09-19T09:00:49.276Z,11.27
2018-09-19T09:03:17.467Z,11.60
2018-09-19T09:05:45.667Z,10.90
2018-09-19T09:08:13.855Z,12.87
2018-09-19T09:10:42.053Z,13.00
2018-09-19T09:13:10.241Z,12.40
2018-09-19T09:15:38.440Z,12.47
2018-09-19T09:18:06.790Z,11.10
2018-09-19T09:20:35.020Z,11.80
2018-09-19T09:23:03.138Z,17.97
2018-09-19T09:25:31.317Z,10.80
2018-09-19T09:27:59.519Z,12.40
2018-09-19T09:30:27.745Z,12.23
2018-09-19T09:32:55.945Z,10.83
2018-09-19T09:35:24.140Z,12.00
2018-09-19T09:37:52.327Z,12.37
2018-09-19T09:40:20.621Z,11.13
2018-09-19T09:42:48.756Z,12.30
2018-09-19T09:45:16.945Z,12.03
2018-09-19T09:47:45.117Z,12.83
2018-09-19T09:50:13.343Z,12.03
2018-09-19T09:52:41.684Z,12.30
2018-09-19T09:55:09.912Z,13.50
2018-09-19T09:57:38.051Z,12.27
2018-09-19T10:00:06.820Z,12.57
2018-09-19T10:02:35.005Z,19.50
2018-09-19T10:05:03.181Z,12.80
2018-09-19T10:07:31.350Z,14.00
2018-09-19T10:09:59.515Z,18.63
2018-09-19T10:12:27.707Z,12.67
2018-09-19T10:14:55.879Z,13.70
2018-09-19T10:17:24.656Z,14.03
2018-09-19T10:19:53.039Z,12.13
2018-09-19T10:22:21.215Z,12.70
2018-09-19T10:24:49.390Z,12.73
2018-09-19T10:27:17.583Z,12.10
2018-09-19T10:29:45.829Z,11.93
2018-09-19T10:32:13.960Z,12.33
2018-09-19T10:34:42.155Z,12.37
2018-09-19T10:37:10.331Z,11.93
2018-09-19T10:39:38.511Z,11.40
2018-09-19T10:42:06.707Z,12.17
2018-09-19T10:44:34.870Z,12.00
2018-09-19T10:47:03.059Z,11.70
2018-09-19T10:49:31.277Z,11.97
2018-09-19T10:51:59.429Z,11.10
2018-09-19T10:54:27.607Z,11.17
2018-09-19T10:56:56.109Z,10.67
2018-09-19T10:59:24.248Z,15.13
2018-09-19T11:01:52.431Z,10.07
2018-09-19T11:04:20.633Z,10.90
2018-09-19T11:06:48.826Z,9.57
2018-09-19T11:09:17.045Z,14.43
2018-09-19T11:11:45.279Z,10.07
2018-09-19T11:14:13.447Z,10.80
2018-09-19T11:16:41.617Z,9.87
2018-09-19T11:19:09.793Z,13.70
2018-09-19T11:21:37.967Z,9.47
2018-09-19T11:24:06.080Z,10.30
2018-09-19T11:26:34.311Z,9.93
2018-09-19T11:29:02.436Z,9.67
2018-09-19T11:31:30.658Z,11.80
2018-09-19T11:33:58.815Z,9.83
2018-09-19T11:36:27.002Z,10.73
2018-09-19T11:38:55.176Z,10.33
2018-09-19T11:41:23.366Z,10.93
2018-09-19T11:43:51.531Z,10.27
2018-09-19T11:46:19.710Z,11.80
2018-09-19T11:48:47.933Z,9.80
2018-09-19T11:51:16.087Z,11.03
2018-09-19T11:53:44.251Z,10.77
2018-09-19T11:56:12.435Z,10.33
2018-09-19T11:58:40.616Z,10.90
2018-09-19T12:01:08.784Z,10.47
2018-09-19T12:03:36.970Z,10.10
2018-09-19T12:06:05.168Z,11.00
2018-09-19T12:08:33.312Z,10.87
2018-09-19T12:11:01.484Z,9.97
2018-09-19T12:13:29.739Z,11.27
2018-09-19T12:15:57.914Z,11.20
2018-09-19T12:18:26.128Z,11.17
2018-09-19T12:20:54.299Z,12.73
2018-09-19T12:23:22.458Z,11.80
2018-09-19T12:25:50.639Z,10.80
2018-09-19T12:28:18.806Z,13.87
2018-09-19T12:30:46.988Z,12.60
2018-09-19T12:33:15.190Z,11.33
2018-09-19T12:35:43.373Z,12.97
2018-09-19T12:38:11.542Z,11.80
2018-09-19T12:40:39.729Z,11.70
2018-09-19T12:43:07.916Z,10.83
2018-09-19T12:45:36.083Z,11.57
2018-09-19T12:48:04.267Z,12.03
2018-09-19T12:50:32.442Z,12.03
2018-09-19T12:53:00.659Z,12.13
2018-09-19T12:55:28.831Z,12.00
2018-09-19T12:57:57.103Z,13.27
2018-09-19T13:00:25.303Z,10.87
2018-09-19T13:02:53.485Z,11.40
2018-09-19T13:05:21.659Z,11.37
2018-09-19T13:07:49.844Z,10.90
2018-09-19T13:10:18.068Z,10.47
2018-09-19T13:12:46.250Z,10.50
2018-09-19T13:15:14.419Z,12.10
2018-09-19T13:17:42.597Z,10.30
2018-09-19T13:20:10.768Z,10.83
2018-09-19T13:22:38.940Z,10.67
2018-09-19T13:25:07.139Z,10.70
2018-09-19T13:27:35.380Z,10.60
2018-09-19T13:30:03.574Z,11.83
2018-09-19T13:32:31.743Z,11.43
2018-09-19T13:34:59.931Z,12.23
2018-09-19T13:37:28.111Z,12.40
2018-09-19T13:39:56.331Z,11.37
2018-09-19T13:42:24.820Z,12.83
2018-09-19T13:44:52.999Z,12.00
2018-09-19T13:47:21.176Z,11.30
2018-09-19T13:49:53.228Z,10.33
2018-09-19T13:52:21.411Z,11.63
2018-09-19T13:54:49.585Z,12.07
2018-09-19T13:57:17.775Z,11.43
2018-09-19T13:59:45.942Z,12.43
2018-09-19T14:02:14.128Z,12.70
2018-09-19T14:04:42.300Z,12.30
2018-09-19T14:07:10.528Z,12.17
2018-09-19T14:09:38.712Z,12.07
2018-09-19T14:12:06.579Z,12.20
2018-09-19T14:14:34.746Z,12.70
2018-09-19T14:17:02.931Z,12.10
2018-09-19T14:19:31.119Z,13.03
2018-09-19T14:21:59.329Z,13.30
2018-09-19T14:24:27.522Z,13.03
2018-09-19T14:26:55.679Z,12.53
2018-09-19T14:29:23.870Z,12.30
2018-09-19T14:31:52.132Z,12.90
2018-09-19T14:34:20.309Z,12.77
2018-09-19T14:36:48.484Z,11.63
2018-09-19T14:39:16.740Z,12.13
2018-09-19T14:41:44.914Z,12.23
2018-09-19T14:44:13.121Z,12.13
2018-09-19T14:46:41.296Z,13.23
2018-09-19T14:49:09.483Z,12.27
2018-09-19T14:51:37.731Z,12.57
2018-09-19T14:54:06.007Z,11.60
2018-09-19T14:56:34.140Z,12.83
2018-09-19T14:59:02.323Z,11.77
2018-09-19T15:01:30.540Z,12.20
2018-09-19T15:03:58.719Z,11.53
2018-09-19T15:06:26.895Z,12.23
2018-09-19T15:08:55.087Z,12.80
2018-09-19T15:11:23.451Z,12.27
2018-09-19T15:13:51.615Z,11.83
2018-09-19T15:16:19.799Z,11.93
2018-09-19T15:18:47.987Z,12.80
2018-09-19T15:21:16.203Z,11.90
2018-09-19T15:23:44.422Z,13.13
2018-09-19T15:26:12.723Z,12.10
2018-09-19T15:28:40.887Z,11.90
2018-09-19T15:31:09.056Z,12.83
2018-09-19T15:33:37.231Z,12.23
2018-09-19T15:36:05.481Z,11.93
2018-09-19T15:38:33.600Z,11.40
2018-09-19T15:41:01.796Z,12.33
2018-09-19T15:43:29.986Z,11.33
2018-09-19T15:45:58.166Z,13.77
2018-09-19T15:48:26.385Z,12.17
2018-09-19T15:50:54.558Z,10.80
2018-09-19T15:53:22.831Z,11.47
2018-09-19T15:55:51.053Z,10.90
2018-09-19T15:58:19.268Z,11.20
2018-09-19T16:00:47.454Z,12.73
2018-09-19T16:03:15.660Z,11.80
2018-09-19T16:05:43.911Z,11.77
2018-09-19T16:08:12.086Z,11.73
2018-09-19T16:10:40.271Z,11.40
2018-09-19T16:13:08.454Z,11.60
2018-09-19T16:15:36.778Z,11.50
2018-09-19T16:18:04.960Z,11.53
2018-09-19T16:20:33.159Z,12.40
2018-09-19T16:23:01.328Z,11.73
2018-09-19T16:25:29.503Z,13.17
2018-09-19T16:27:57.692Z,11.90
2018-09-19T16:30:25.883Z,10.83
2018-09-19T16:32:54.101Z,11.10
2018-09-19T16:35:22.303Z,10.87
2018-09-19T16:37:50.479Z,10.97
2018-09-19T16:40:18.770Z,11.93
2018-09-19T16:42:46.964Z,11.60
2018-09-19T16:45:15.132Z,11.27
2018-09-19T16:47:43.324Z,11.83
2018-09-19T16:50:11.507Z,11.90
2018-09-19T16:52:39.702Z,11.20
2018-09-19T16:55:07.900Z,11.60
2018-09-19T16:57:36.071Z,11.27
2018-09-19T17:00:04.979Z,11.23
2018-09-19T17:02:33.160Z,11.70
2018-09-19T17:05:01.354Z,12.40
2018-09-19T17:07:29.562Z,10.93
2018-09-19T17:09:57.736Z,12.10
2018-09-19T17:12:26.053Z,12.60
2018-09-19T17:14:54.259Z,12.00
2018-09-19T17:17:22.431Z,12.07
2018-09-19T17:19:50.615Z,10.97
2018-09-19T17:22:18.804Z,11.73
2018-09-19T17:24:47.017Z,11.73
2018-09-19T17:27:15.302Z,12.40
2018-09-19T17:29:43.474Z,11.17
2018-09-19T17:32:11.689Z,11.90
2018-09-19T17:34:39.876Z,11.07
2018-09-19T17:37:08.244Z,12.03
2018-09-19T17:39:36.419Z,15.00
2018-09-19T17:42:04.611Z,10.83
2018-09-19T17:44:32.863Z,10.27
2018-09-19T17:47:01.044Z,11.17
2018-09-19T17:49:29.244Z,11.43
2018-09-19T17:51:57.444Z,10.43
2018-09-19T17:54:25.627Z,14.33
2018-09-19T17:56:53.836Z,13.40
2018-09-19T17:59:22.192Z,12.40
2018-09-19T18:01:50.367Z,10.53
2018-09-19T18:04:18.592Z,11.67
2018-09-19T18:06:46.778Z,11.70
2018-09-19T18:09:14.970Z,12.23
2018-09-19T18:11:43.203Z,10.80
2018-09-19T18:14:11.396Z,11.10
2018-09-19T18:16:39.583Z,10.43
2018-09-19T18:19:07.776Z,11.50
2018-09-19T18:21:35.970Z,13.10
2018-09-19T18:24:04.214Z,12.00
2018-09-19T18:26:32.430Z,14.13
2018-09-19T18:29:00.679Z,11.13
2018-09-19T18:31:28.913Z,12.23
2018-09-19T18:33:59.920Z,11.50
2018-09-19T18:36:28.431Z,10.00
2018-09-19T18:38:57.096Z,11.90
2018-09-19T18:41:25.354Z,10.70
2018-09-19T18:43:53.664Z,11.93
2018-09-19T18:46:21.948Z,11.43
2018-09-19T18:48:50.855Z,11.90
2018-09-19T18:51:19.250Z,11.53
2018-09-19T18:53:47.771Z,11.90
2018-09-19T18:56:16.065Z,10.80
2018-09-19T18:58:44.407Z,11.67
2018-09-19T19:01:12.706Z,11.70
2018-09-19T19:03:42.058Z,10.93
2018-09-19T19:06:10.251Z,14.53
2018-09-19T19:08:38.660Z,10.37
2018-09-19T19:11:07.836Z,11.97
2018-09-19T19:13:36.081Z,13.00
2018-09-19T19:16:04.299Z,11.70
2018-09-19T19:18:34.005Z,10.83
2018-09-19T19:21:02.289Z,11.00
2018-09-19T19:23:31.255Z,13.67
2018-09-19T19:25:59.536Z,12.40
2018-09-19T19:28:27.997Z,16.77
2018-09-19T19:30:56.192Z,12.67
2018-09-19T19:33:26.603Z,11.90
2018-09-19T19:35:54.819Z,12.23
2018-09-19T19:38:24.088Z,12.77
2018-09-19T19:40:53.016Z,12.63
2018-09-19T19:43:21.782Z,12.23
2018-09-19T19:45:50.078Z,11.97
2018-09-19T19:48:19.038Z,12.10
2018-09-19T19:50:47.224Z,13.37
2018-09-19T19:53:15.517Z,69.37
2018-09-19T19:55:44.738Z,18.57
2018-09-19T19:58:13.708Z,21.87
2018-09-19T20:00:43.624Z,15.23
2018-09-19T20:03:12.899Z,14.40
2018-09-19T20:05:42.224Z,12.03
2018-09-19T20:08:10.364Z,12.83
2018-09-19T20:10:38.588Z,12.20
2018-09-19T20:13:07.516Z,11.70
2018-09-19T20:15:35.669Z,11.87
2018-09-19T20:18:03.858Z,13.03
2018-09-19T20:20:31.995Z,12.83
2018-09-19T20:23:00.147Z,14.80
2018-09-19T20:25:28.300Z,15.80
2018-09-19T20:27:56.448Z,14.13
2018-09-19T20:30:24.616Z,37.80
2018-09-19T20:32:52.758Z,80.77
2018-09-19T20:35:20.912Z,61.53
2018-09-19T20:37:49.054Z,42.73
2018-09-19T20:40:17.219Z,23.57
2018-09-19T20:42:45.372Z,14.70
2018-09-19T20:45:13.540Z,13.20
2018-09-19T20:47:41.686Z,17.90
2018-09-19T20:50:09.844Z,13.47
2018-09-19T20:52:37.996Z,13.83
2018-09-19T20:55:06.132Z,13.20
2018-09-19T20:57:34.290Z,13.87
2018-09-19T21:00:02.465Z,13.30
2018-09-19T21:02:30.682Z,14.13
2018-09-19T21:04:58.842Z,13.80
2018-09-19T21:07:26.997Z,13.60
2018-09-19T21:09:55.136Z,14.77
2018-09-19T21:12:23.291Z,20.50
2018-09-19T21:14:51.427Z,13.07
2018-09-19T21:17:19.619Z,14.53
2018-09-19T21:19:47.791Z,13.03
2018-09-19T21:22:16.128Z,13.20
2018-09-19T21:24:44.148Z,12.53
2018-09-19T21:27:12.323Z,13.97
2018-09-19T21:29:40.628Z,14.20
2018-09-19T21:32:08.824Z,17.80
2018-09-19T21:34:37.011Z,12.07
2018-09-19T21:37:05.191Z,13.50
2018-09-19T21:39:33.376Z,11.87
2018-09-19T21:42:01.559Z,11.93
2018-09-19T21:44:29.735Z,14.50
2018-09-19T21:46:57.927Z,13.73
2018-09-19T21:49:26.123Z,12.07
2018-09-19T21:51:54.324Z,12.60
2018-09-19T21:54:22.503Z,14.47
2018-09-19T21:56:50.795Z,14.20
2018-09-19T21:59:19.019Z,16.30
2018-09-19T22:01:51.358Z,13.07
2018-09-19T22:04:19.548Z,13.57
2018-09-19T22:06:47.723Z,13.17
2018-09-19T22:09:15.930Z,13.87
2018-09-19T22:11:44.100Z,13.33
2018-09-19T22:14:12.280Z,11.90
2018-09-19T22:16:40.452Z,13.37
2018-09-19T22:19:08.637Z,15.03
2018-09-19T22:21:36.819Z,18.70
2018-09-19T22:24:04.991Z,13.67
2018-09-19T22:26:33.179Z,15.90
2018-09-19T22:29:01.391Z,12.97
2018-09-19T22:31:29.605Z,13.40
2018-09-19T22:33:57.796Z,12.73
2018-09-19T22:36:25.979Z,14.20
2018-09-19T22:38:54.161Z,14.63
2018-09-19T22:41:22.498Z,15.53
2018-09-19T22:43:50.928Z,14.03
2018-09-19T22:46:19.152Z,13.03
2018-09-19T22:48:47.791Z,12.73
2018-09-19T22:51:16.003Z,12.20
2018-09-19T22:53:44.240Z,12.50
2018-09-19T22:56:12.504Z,12.60
2018-09-19T22:58:40.687Z,14.17
2018-09-19T23:01:08.860Z,13.07
2018-09-19T23:03:37.036Z,12.20
2018-09-19T23:06:05.272Z,12.00
2018-09-19T23:08:33.443Z,12.10
2018-09-19T23:11:01.625Z,17.03
2018-09-19T23:13:29.819Z,12.37
2018-09-19T23:15:58.004Z,16.73
2018-09-19T23:18:26.233Z,15.17
2018-09-19T23:20:54.367Z,12.30
2018-09-19T23:23:22.552Z,12.30
2018-09-19T23:25:50.712Z,21.93
2018-09-19T23:28:18.882Z,14.80
2018-09-19T23:30:47.071Z,11.83
2018-09-19T23:33:15.283Z,15.50
2018-09-19T23:35:43.463Z,13.77
2018-09-19T23:38:11.643Z,12.60
2018-09-19T23:40:39.827Z,13.60
2018-09-19T23:43:08.005Z,14.73
2018-09-19T23:45:36.176Z,14.37
2018-09-19T23:48:04.356Z,17.87
2018-09-19T23:50:32.535Z,12.60
2018-09-19T23:53:00.716Z,13.03
2018-09-19T23:55:28.892Z,13.77
2018-09-19T23:57:57.113Z,13.53
